sensor_id;sensor_type;location;lat;lon;timestamp;P1;durP1;ratioP1;P2;durP2;ratioP2
58091;SDS011;43896;48.178;11.578;2024-02-21T00:00:41;6.72;;;1.60;;
58091;SDS011;43896;48.178;11.578;2024-02-21T00:03:07;4.95;;;1.55;;
58091;SDS011;43896;48.178;11.578;2024-02-21T00:05:32;4.80;;;1.58;;
58091;SDS011;43896;48.178;11.578;2024-02-21T00:07:58;4.63;;;1.30;;
58091;SDS011;43896;48.178;11.578;2024-02-21T00:10:25;3.85;;;1.42;;
58091;SDS011;43896;48.178;11.578;2024-02-21T00:12:51;4.50;;;1.55;;
58091;SDS011;43896;48.178;11.578;2024-02-21T00:15:17;6.20;;;1.73;;
58091;SDS011;43896;48.178;11.578;2024-02-21T00:17:43;6.93;;;1.85;;
58091;SDS011;43896;48.178;11.578;2024-02-21T00:20:10;5.45;;;1.55;;
58091;SDS011;43896;48.178;11.578;2024-02-21T00:22:35;4.80;;;1.48;;
58091;SDS011;43896;48.178;11.578;2024-02-21T00:25:01;6.30;;;2.20;;
58091;SDS011;43896;48.178;11.578;2024-02-21T00:27:26;6.30;;;1.60;;
58091;SDS011;43896;48.178;11.578;2024-02-21T00:29:52;5.38;;;1.50;;
58091;SDS011;43896;48.178;11.578;2024-02-21T00:32:18;5.10;;;1.40;;
58091;SDS011;43896;48.178;11.578;2024-02-21T00:34:43;5.32;;;1.73;;
58091;SDS011;43896;48.178;11.578;2024-02-21T00:37:09;5.93;;;1.52;;
58091;SDS011;43896;48.178;11.578;2024-02-21T00:39:34;4.72;;;1.48;;
58091;SDS011;43896;48.178;11.578;2024-02-21T00:41:59;5.10;;;1.60;;
58091;SDS011;43896;48.178;11.578;2024-02-21T00:44:26;4.35;;;1.60;;
58091;SDS011;43896;48.178;11.578;2024-02-21T00:46:51;4.47;;;1.45;;
58091;SDS011;43896;48.178;11.578;2024-02-21T00:49:17;5.60;;;1.63;;
58091;SDS011;43896;48.178;11.578;2024-02-21T00:51:43;4.80;;;1.50;;
58091;SDS011;43896;48.178;11.578;2024-02-21T00:54:08;4.32;;;1.35;;
58091;SDS011;43896;48.178;11.578;2024-02-21T00:56:34;5.07;;;1.50;;
58091;SDS011;43896;48.178;11.578;2024-02-21T00:58:59;4.38;;;1.30;;
58091;SDS011;43896;48.178;11.578;2024-02-21T01:01:25;5.55;;;1.50;;
58091;SDS011;43896;48.178;11.578;2024-02-21T01:03:50;3.88;;;1.20;;
58091;SDS011;43896;48.178;11.578;2024-02-21T01:06:18;5.25;;;1.52;;
58091;SDS011;43896;48.178;11.578;2024-02-21T01:08:45;5.03;;;1.40;;
58091;SDS011;43896;48.178;11.578;2024-02-21T01:11:12;5.38;;;1.58;;
58091;SDS011;43896;48.178;11.578;2024-02-21T01:13:37;3.72;;;1.42;;
58091;SDS011;43896;48.178;11.578;2024-02-21T01:16:02;5.30;;;1.42;;
58091;SDS011;43896;48.178;11.578;2024-02-21T01:18:28;3.83;;;1.50;;
58091;SDS011;43896;48.178;11.578;2024-02-21T01:20:53;5.88;;;1.60;;
58091;SDS011;43896;48.178;11.578;2024-02-21T01:23:18;5.20;;;1.75;;
58091;SDS011;43896;48.178;11.578;2024-02-21T01:25:44;5.00;;;1.60;;
58091;SDS011;43896;48.178;11.578;2024-02-21T01:28:09;4.85;;;1.40;;
58091;SDS011;43896;48.178;11.578;2024-02-21T01:30:35;3.67;;;1.27;;
58091;SDS011;43896;48.178;11.578;2024-02-21T01:33:00;5.40;;;1.80;;
58091;SDS011;43896;48.178;11.578;2024-02-21T01:35:25;3.40;;;1.40;;
58091;SDS011;43896;48.178;11.578;2024-02-21T01:37:51;4.68;;;1.40;;
58091;SDS011;43896;48.178;11.578;2024-02-21T01:40:16;4.72;;;1.55;;
58091;SDS011;43896;48.178;11.578;2024-02-21T01:42:42;7.22;;;1.63;;
58091;SDS011;43896;48.178;11.578;2024-02-21T01:45:07;5.03;;;1.40;;
58091;SDS011;43896;48.178;11.578;2024-02-21T01:47:33;4.15;;;1.40;;
58091;SDS011;43896;48.178;11.578;2024-02-21T01:49:59;4.68;;;1.40;;
58091;SDS011;43896;48.178;11.578;2024-02-21T01:52:26;5.28;;;1.45;;
58091;SDS011;43896;48.178;11.578;2024-02-21T01:54:53;4.47;;;1.50;;
58091;SDS011;43896;48.178;11.578;2024-02-21T01:57:19;4.55;;;1.40;;
58091;SDS011;43896;48.178;11.578;2024-02-21T01:59:44;4.53;;;1.80;;
58091;SDS011;43896;48.178;11.578;2024-02-21T02:02:11;4.32;;;1.27;;
58091;SDS011;43896;48.178;11.578;2024-02-21T02:04:37;4.93;;;1.52;;
58091;SDS011;43896;48.178;11.578;2024-02-21T02:07:03;4.47;;;1.33;;
58091;SDS011;43896;48.178;11.578;2024-02-21T02:09:31;3.78;;;1.30;;
58091;SDS011;43896;48.178;11.578;2024-02-21T02:11:57;5.25;;;1.77;;
58091;SDS011;43896;48.178;11.578;2024-02-21T02:14:23;4.10;;;1.30;;
58091;SDS011;43896;48.178;11.578;2024-02-21T02:16:48;3.20;;;1.30;;
58091;SDS011;43896;48.178;11.578;2024-02-21T02:19:14;4.47;;;1.25;;
58091;SDS011;43896;48.178;11.578;2024-02-21T02:21:42;4.50;;;1.00;;
58091;SDS011;43896;48.178;11.578;2024-02-21T02:24:11;4.00;;;1.45;;
58091;SDS011;43896;48.178;11.578;2024-02-21T02:26:37;3.42;;;1.25;;
58091;SDS011;43896;48.178;11.578;2024-02-21T02:29:02;4.32;;;1.33;;
58091;SDS011;43896;48.178;11.578;2024-02-21T02:31:27;5.57;;;1.38;;
58091;SDS011;43896;48.178;11.578;2024-02-21T02:33:53;4.88;;;1.30;;
58091;SDS011;43896;48.178;11.578;2024-02-21T02:36:18;4.40;;;1.20;;
58091;SDS011;43896;48.178;11.578;2024-02-21T02:38:44;3.08;;;1.17;;
58091;SDS011;43896;48.178;11.578;2024-02-21T02:41:09;4.78;;;1.20;;
58091;SDS011;43896;48.178;11.578;2024-02-21T02:43:35;3.38;;;1.20;;
58091;SDS011;43896;48.178;11.578;2024-02-21T02:46:01;3.20;;;1.10;;
58091;SDS011;43896;48.178;11.578;2024-02-21T02:48:27;3.40;;;1.05;;
58091;SDS011;43896;48.178;11.578;2024-02-21T02:50:52;3.78;;;1.20;;
58091;SDS011;43896;48.178;11.578;2024-02-21T02:53:18;3.78;;;1.20;;
58091;SDS011;43896;48.178;11.578;2024-02-21T02:55:43;4.13;;;1.20;;
58091;SDS011;43896;48.178;11.578;2024-02-21T02:58:08;3.47;;;1.17;;
58091;SDS011;43896;48.178;11.578;2024-02-21T03:00:34;4.38;;;1.35;;
58091;SDS011;43896;48.178;11.578;2024-02-21T03:03:01;2.80;;;1.08;;
58091;SDS011;43896;48.178;11.578;2024-02-21T03:05:28;3.92;;;1.15;;
58091;SDS011;43896;48.178;11.578;2024-02-21T03:07:54;2.60;;;1.08;;
58091;SDS011;43896;48.178;11.578;2024-02-21T03:10:20;4.57;;;1.08;;
58091;SDS011;43896;48.178;11.578;2024-02-21T03:12:45;3.88;;;1.25;;
58091;SDS011;43896;48.178;11.578;2024-02-21T03:15:11;3.75;;;1.15;;
58091;SDS011;43896;48.178;11.578;2024-02-21T03:17:37;2.83;;;1.15;;
58091;SDS011;43896;48.178;11.578;2024-02-21T03:20:03;3.72;;;1.00;;
58091;SDS011;43896;48.178;11.578;2024-02-21T03:22:36;2.53;;;0.82;;
58091;SDS011;43896;48.178;11.578;2024-02-21T03:25:01;3.63;;;0.98;;
58091;SDS011;43896;48.178;11.578;2024-02-21T03:27:27;3.45;;;1.13;;
58091;SDS011;43896;48.178;11.578;2024-02-21T03:29:53;4.50;;;1.10;;
58091;SDS011;43896;48.178;11.578;2024-02-21T03:32:18;4.10;;;1.00;;
58091;SDS011;43896;48.178;11.578;2024-02-21T03:34:43;3.28;;;0.98;;
58091;SDS011;43896;48.178;11.578;2024-02-21T03:37:09;2.70;;;1.10;;
58091;SDS011;43896;48.178;11.578;2024-02-21T03:39:34;3.42;;;1.20;;
58091;SDS011;43896;48.178;11.578;2024-02-21T03:42:00;3.45;;;0.98;;
58091;SDS011;43896;48.178;11.578;2024-02-21T03:47:01;3.28;;;1.05;;
58091;SDS011;43896;48.178;11.578;2024-02-21T03:49:26;4.20;;;1.20;;
58091;SDS011;43896;48.178;11.578;2024-02-21T03:51:51;2.90;;;0.90;;
58091;SDS011;43896;48.178;11.578;2024-02-21T03:54:17;4.03;;;1.00;;
58091;SDS011;43896;48.178;11.578;2024-02-21T03:56:43;3.17;;;1.10;;
58091;SDS011;43896;48.178;11.578;2024-02-21T03:59:08;4.93;;;1.08;;
58091;SDS011;43896;48.178;11.578;2024-02-21T04:01:34;2.97;;;1.02;;
58091;SDS011;43896;48.178;11.578;2024-02-21T04:04:00;3.40;;;0.90;;
58091;SDS011;43896;48.178;11.578;2024-02-21T04:06:25;2.33;;;0.93;;
58091;SDS011;43896;48.178;11.578;2024-02-21T04:08:51;2.08;;;0.90;;
58091;SDS011;43896;48.178;11.578;2024-02-21T04:11:16;2.88;;;0.95;;
58091;SDS011;43896;48.178;11.578;2024-02-21T04:13:43;4.55;;;1.10;;
58091;SDS011;43896;48.178;11.578;2024-02-21T04:16:09;2.80;;;0.80;;
58091;SDS011;43896;48.178;11.578;2024-02-21T04:18:34;2.92;;;0.88;;
58091;SDS011;43896;48.178;11.578;2024-02-21T04:21:00;3.30;;;1.10;;
58091;SDS011;43896;48.178;11.578;2024-02-21T04:23:25;3.53;;;0.90;;
58091;SDS011;43896;48.178;11.578;2024-02-21T04:25:50;4.68;;;1.17;;
58091;SDS011;43896;48.178;11.578;2024-02-21T04:28:16;3.10;;;1.00;;
58091;SDS011;43896;48.178;11.578;2024-02-21T04:30:41;2.42;;;0.90;;
58091;SDS011;43896;48.178;11.578;2024-02-21T04:33:06;3.63;;;0.95;;
58091;SDS011;43896;48.178;11.578;2024-02-21T04:35:32;3.20;;;1.02;;
58091;SDS011;43896;48.178;11.578;2024-02-21T04:37:57;3.08;;;0.93;;
58091;SDS011;43896;48.178;11.578;2024-02-21T04:40:23;3.40;;;1.02;;
58091;SDS011;43896;48.178;11.578;2024-02-21T04:42:48;3.63;;;0.90;;
58091;SDS011;43896;48.178;11.578;2024-02-21T04:45:13;3.15;;;0.80;;
58091;SDS011;43896;48.178;11.578;2024-02-21T04:47:39;3.55;;;1.08;;
58091;SDS011;43896;48.178;11.578;2024-02-21T04:50:04;2.92;;;0.90;;
58091;SDS011;43896;48.178;11.578;2024-02-21T04:52:31;3.22;;;1.00;;
58091;SDS011;43896;48.178;11.578;2024-02-21T04:54:56;4.53;;;1.05;;
58091;SDS011;43896;48.178;11.578;2024-02-21T04:57:21;3.13;;;0.90;;
58091;SDS011;43896;48.178;11.578;2024-02-21T04:59:47;4.93;;;0.90;;
58091;SDS011;43896;48.178;11.578;2024-02-21T05:02:15;3.38;;;0.80;;
58091;SDS011;43896;48.178;11.578;2024-02-21T05:04:41;3.70;;;0.85;;
58091;SDS011;43896;48.178;11.578;2024-02-21T05:07:07;2.65;;;0.90;;
58091;SDS011;43896;48.178;11.578;2024-02-21T05:09:33;2.38;;;0.75;;
58091;SDS011;43896;48.178;11.578;2024-02-21T05:11:58;4.43;;;0.95;;
58091;SDS011;43896;48.178;11.578;2024-02-21T05:14:26;3.47;;;1.10;;
58091;SDS011;43896;48.178;11.578;2024-02-21T05:16:52;3.28;;;0.85;;
58091;SDS011;43896;48.178;11.578;2024-02-21T05:19:17;1.50;;;0.70;;
58091;SDS011;43896;48.178;11.578;2024-02-21T05:21:43;3.78;;;1.13;;
58091;SDS011;43896;48.178;11.578;2024-02-21T05:24:08;3.22;;;0.80;;
58091;SDS011;43896;48.178;11.578;2024-02-21T05:26:34;2.40;;;0.82;;
58091;SDS011;43896;48.178;11.578;2024-02-21T05:28:59;3.40;;;1.10;;
58091;SDS011;43896;48.178;11.578;2024-02-21T05:31:24;1.90;;;0.82;;
58091;SDS011;43896;48.178;11.578;2024-02-21T05:33:50;4.40;;;1.00;;
58091;SDS011;43896;48.178;11.578;2024-02-21T05:36:15;3.50;;;0.80;;
58091;SDS011;43896;48.178;11.578;2024-02-21T05:38:41;3.35;;;1.20;;
58091;SDS011;43896;48.178;11.578;2024-02-21T05:41:06;3.38;;;0.88;;
58091;SDS011;43896;48.178;11.578;2024-02-21T05:43:32;3.92;;;0.80;;
58091;SDS011;43896;48.178;11.578;2024-02-21T05:45:57;2.70;;;0.80;;
58091;SDS011;43896;48.178;11.578;2024-02-21T05:48:23;3.17;;;0.82;;
58091;SDS011;43896;48.178;11.578;2024-02-21T05:50:49;2.88;;;0.80;;
58091;SDS011;43896;48.178;11.578;2024-02-21T05:53:14;2.47;;;0.73;;
58091;SDS011;43896;48.178;11.578;2024-02-21T05:55:40;4.03;;;1.10;;
58091;SDS011;43896;48.178;11.578;2024-02-21T05:58:05;5.32;;;1.10;;
58091;SDS011;43896;48.178;11.578;2024-02-21T06:00:31;3.70;;;1.13;;
58091;SDS011;43896;48.178;11.578;2024-02-21T06:02:57;6.70;;;1.17;;
58091;SDS011;43896;48.178;11.578;2024-02-21T06:05:22;4.45;;;1.60;;
58091;SDS011;43896;48.178;11.578;2024-02-21T06:07:48;4.63;;;1.50;;
58091;SDS011;43896;48.178;11.578;2024-02-21T06:10:13;3.70;;;1.50;;
58091;SDS011;43896;48.178;11.578;2024-02-21T06:12:39;6.68;;;2.20;;
58091;SDS011;43896;48.178;11.578;2024-02-21T06:15:04;3.60;;;1.40;;
58091;SDS011;43896;48.178;11.578;2024-02-21T06:17:31;3.65;;;1.50;;
58091;SDS011;43896;48.178;11.578;2024-02-21T06:19:56;7.90;;;2.58;;
58091;SDS011;43896;48.178;11.578;2024-02-21T06:22:22;6.78;;;2.00;;
58091;SDS011;43896;48.178;11.578;2024-02-21T06:24:47;5.43;;;1.50;;
58091;SDS011;43896;48.178;11.578;2024-02-21T06:27:12;4.50;;;1.40;;
58091;SDS011;43896;48.178;11.578;2024-02-21T06:29:40;3.65;;;1.23;;
58091;SDS011;43896;48.178;11.578;2024-02-21T06:32:05;3.58;;;1.20;;
58091;SDS011;43896;48.178;11.578;2024-02-21T06:34:31;4.53;;;1.10;;
58091;SDS011;43896;48.178;11.578;2024-02-21T06:36:56;6.53;;;1.00;;
58091;SDS011;43896;48.178;11.578;2024-02-21T06:39:22;4.47;;;1.30;;
58091;SDS011;43896;48.178;11.578;2024-02-21T06:41:48;3.13;;;1.23;;
58091;SDS011;43896;48.178;11.578;2024-02-21T06:44:15;4.75;;;1.20;;
58091;SDS011;43896;48.178;11.578;2024-02-21T06:46:41;4.60;;;1.10;;
58091;SDS011;43896;48.178;11.578;2024-02-21T06:49:06;4.72;;;1.20;;
58091;SDS011;43896;48.178;11.578;2024-02-21T06:51:32;4.57;;;1.38;;
58091;SDS011;43896;48.178;11.578;2024-02-21T06:53:58;7.15;;;1.38;;
58091;SDS011;43896;48.178;11.578;2024-02-21T06:56:24;2.60;;;1.00;;
58091;SDS011;43896;48.178;11.578;2024-02-21T06:58:54;3.22;;;1.10;;
58091;SDS011;43896;48.178;11.578;2024-02-21T07:01:20;5.93;;;1.20;;
58091;SDS011;43896;48.178;11.578;2024-02-21T07:03:46;3.75;;;1.10;;
58091;SDS011;43896;48.178;11.578;2024-02-21T07:06:11;3.75;;;1.00;;
58091;SDS011;43896;48.178;11.578;2024-02-21T07:08:37;5.47;;;1.27;;
58091;SDS011;43896;48.178;11.578;2024-02-21T07:11:04;3.15;;;0.98;;
58091;SDS011;43896;48.178;11.578;2024-02-21T07:13:29;5.07;;;1.00;;
58091;SDS011;43896;48.178;11.578;2024-02-21T07:15:55;4.40;;;0.95;;
58091;SDS011;43896;48.178;11.578;2024-02-21T07:18:20;3.25;;;1.10;;
58091;SDS011;43896;48.178;11.578;2024-02-21T07:20:46;4.60;;;1.00;;
58091;SDS011;43896;48.178;11.578;2024-02-21T07:23:11;3.03;;;1.10;;
58091;SDS011;43896;48.178;11.578;2024-02-21T07:25:36;5.30;;;1.42;;
58091;SDS011;43896;48.178;11.578;2024-02-21T07:28:02;4.10;;;1.05;;
58091;SDS011;43896;48.178;11.578;2024-02-21T07:30:28;3.35;;;1.10;;
58091;SDS011;43896;48.178;11.578;2024-02-21T07:32:53;3.30;;;1.00;;
58091;SDS011;43896;48.178;11.578;2024-02-21T07:35:18;3.35;;;1.00;;
58091;SDS011;43896;48.178;11.578;2024-02-21T07:37:46;5.80;;;1.30;;
58091;SDS011;43896;48.178;11.578;2024-02-21T07:40:15;4.75;;;1.20;;
58091;SDS011;43896;48.178;11.578;2024-02-21T07:42:41;5.13;;;1.25;;
58091;SDS011;43896;48.178;11.578;2024-02-21T07:45:08;4.43;;;1.10;;
58091;SDS011;43896;48.178;11.578;2024-02-21T07:47:34;8.32;;;1.30;;
58091;SDS011;43896;48.178;11.578;2024-02-21T07:49:59;3.72;;;1.02;;
58091;SDS011;43896;48.178;11.578;2024-02-21T07:52:25;3.38;;;1.10;;
58091;SDS011;43896;48.178;11.578;2024-02-21T07:54:50;3.13;;;1.15;;
58091;SDS011;43896;48.178;11.578;2024-02-21T07:57:16;3.08;;;1.25;;
58091;SDS011;43896;48.178;11.578;2024-02-21T07:59:41;9.63;;;1.50;;
58091;SDS011;43896;48.178;11.578;2024-02-21T08:02:07;2.97;;;1.10;;
58091;SDS011;43896;48.178;11.578;2024-02-21T08:04:33;2.83;;;0.80;;
58091;SDS011;43896;48.178;11.578;2024-02-21T08:06:58;2.47;;;0.70;;
58091;SDS011;43896;48.178;11.578;2024-02-21T08:09:29;2.33;;;0.70;;
58091;SDS011;43896;48.178;11.578;2024-02-21T08:11:57;3.15;;;0.98;;
58091;SDS011;43896;48.178;11.578;2024-02-21T08:14:25;3.65;;;0.80;;
58091;SDS011;43896;48.178;11.578;2024-02-21T08:16:51;2.65;;;0.65;;
58091;SDS011;43896;48.178;11.578;2024-02-21T08:19:18;2.83;;;0.80;;
58091;SDS011;43896;48.178;11.578;2024-02-21T08:21:44;2.10;;;0.90;;
58091;SDS011;43896;48.178;11.578;2024-02-21T08:24:12;3.47;;;0.70;;
58091;SDS011;43896;48.178;11.578;2024-02-21T08:26:40;3.05;;;0.80;;
58091;SDS011;43896;48.178;11.578;2024-02-21T08:29:06;2.65;;;0.63;;
58091;SDS011;43896;48.178;11.578;2024-02-21T08:31:32;2.22;;;0.90;;
58091;SDS011;43896;48.178;11.578;2024-02-21T08:33:59;2.50;;;0.70;;
58091;SDS011;43896;48.178;11.578;2024-02-21T08:38:57;2.28;;;0.65;;
58091;SDS011;43896;48.178;11.578;2024-02-21T08:41:26;1.88;;;0.63;;
58091;SDS011;43896;48.178;11.578;2024-02-21T08:43:52;2.70;;;0.70;;
58091;SDS011;43896;48.178;11.578;2024-02-21T08:46:19;1.80;;;0.60;;
58091;SDS011;43896;48.178;11.578;2024-02-21T08:48:49;2.10;;;0.60;;
58091;SDS011;43896;48.178;11.578;2024-02-21T08:51:14;2.92;;;0.80;;
58091;SDS011;43896;48.178;11.578;2024-02-21T08:53:40;1.65;;;0.80;;
58091;SDS011;43896;48.178;11.578;2024-02-21T08:56:06;2.22;;;0.70;;
58091;SDS011;43896;48.178;11.578;2024-02-21T08:58:32;3.42;;;0.70;;
58091;SDS011;43896;48.178;11.578;2024-02-21T09:00:58;2.35;;;0.65;;
58091;SDS011;43896;48.178;11.578;2024-02-21T09:03:24;1.88;;;0.70;;
58091;SDS011;43896;48.178;11.578;2024-02-21T09:05:50;1.75;;;0.60;;
58091;SDS011;43896;48.178;11.578;2024-02-21T09:08:15;2.03;;;0.63;;
58091;SDS011;43896;48.178;11.578;2024-02-21T09:10:41;1.77;;;0.60;;
58091;SDS011;43896;48.178;11.578;2024-02-21T09:13:06;2.10;;;0.70;;
58091;SDS011;43896;48.178;11.578;2024-02-21T09:15:33;1.35;;;0.60;;
58091;SDS011;43896;48.178;11.578;2024-02-21T09:17:59;2.10;;;0.65;;
58091;SDS011;43896;48.178;11.578;2024-02-21T09:20:25;2.17;;;0.60;;
58091;SDS011;43896;48.178;11.578;2024-02-21T09:22:50;2.40;;;0.73;;
58091;SDS011;43896;48.178;11.578;2024-02-21T09:25:17;2.05;;;0.63;;
58091;SDS011;43896;48.178;11.578;2024-02-21T09:27:43;3.67;;;0.68;;
58091;SDS011;43896;48.178;11.578;2024-02-21T09:30:09;2.55;;;0.70;;
58091;SDS011;43896;48.178;11.578;2024-02-21T09:32:35;2.55;;;0.68;;
58091;SDS011;43896;48.178;11.578;2024-02-21T09:35:01;2.10;;;0.60;;
58091;SDS011;43896;48.178;11.578;2024-02-21T09:37:26;4.05;;;0.68;;
58091;SDS011;43896;48.178;11.578;2024-02-21T09:39:52;1.85;;;0.63;;
58091;SDS011;43896;48.178;11.578;2024-02-21T09:42:20;1.48;;;0.60;;
58091;SDS011;43896;48.178;11.578;2024-02-21T09:44:47;4.60;;;0.65;;
58091;SDS011;43896;48.178;11.578;2024-02-21T09:47:18;2.28;;;0.50;;
58091;SDS011;43896;48.178;11.578;2024-02-21T09:49:47;1.65;;;0.50;;
58091;SDS011;43896;48.178;11.578;2024-02-21T09:52:13;4.43;;;0.70;;
58091;SDS011;43896;48.178;11.578;2024-02-21T09:54:41;1.55;;;0.50;;
58091;SDS011;43896;48.178;11.578;2024-02-21T09:57:09;2.45;;;0.70;;
58091;SDS011;43896;48.178;11.578;2024-02-21T09:59:36;2.22;;;0.60;;
58091;SDS011;43896;48.178;11.578;2024-02-21T10:02:02;2.45;;;0.52;;
58091;SDS011;43896;48.178;11.578;2024-02-21T10:04:29;1.20;;;0.50;;
58091;SDS011;43896;48.178;11.578;2024-02-21T10:06:54;2.63;;;0.60;;
58091;SDS011;43896;48.178;11.578;2024-02-21T10:09:23;1.77;;;0.50;;
58091;SDS011;43896;48.178;11.578;2024-02-21T10:11:52;1.13;;;0.50;;
58091;SDS011;43896;48.178;11.578;2024-02-21T10:14:19;4.90;;;0.80;;
58091;SDS011;43896;48.178;11.578;2024-02-21T10:16:47;3.90;;;0.70;;
58091;SDS011;43896;48.178;11.578;2024-02-21T10:19:19;2.38;;;0.60;;
58091;SDS011;43896;48.178;11.578;2024-02-21T10:22:01;1.45;;;0.50;;
58091;SDS011;43896;48.178;11.578;2024-02-21T10:24:29;2.00;;;0.50;;
58091;SDS011;43896;48.178;11.578;2024-02-21T10:27:01;1.80;;;0.50;;
58091;SDS011;43896;48.178;11.578;2024-02-21T10:29:32;2.38;;;0.60;;
58091;SDS011;43896;48.178;11.578;2024-02-21T10:32:09;1.10;;;0.60;;
58091;SDS011;43896;48.178;11.578;2024-02-21T10:34:36;0.93;;;0.45;;
58091;SDS011;43896;48.178;11.578;2024-02-21T10:37:03;3.08;;;0.70;;
58091;SDS011;43896;48.178;11.578;2024-02-21T10:39:33;2.83;;;0.60;;
58091;SDS011;43896;48.178;11.578;2024-02-21T10:42:03;1.80;;;0.40;;
58091;SDS011;43896;48.178;11.578;2024-02-21T10:44:29;1.55;;;0.50;;
58091;SDS011;43896;48.178;11.578;2024-02-21T10:46:59;3.88;;;0.60;;
58091;SDS011;43896;48.178;11.578;2024-02-21T10:49:27;1.60;;;0.50;;
58091;SDS011;43896;48.178;11.578;2024-02-21T10:57:41;1.27;;;0.50;;
58091;SDS011;43896;48.178;11.578;2024-02-21T11:00:07;2.55;;;0.60;;
58091;SDS011;43896;48.178;11.578;2024-02-21T11:02:37;3.67;;;1.25;;
58091;SDS011;43896;48.178;11.578;2024-02-21T11:05:04;1.67;;;0.50;;
58091;SDS011;43896;48.178;11.578;2024-02-21T11:07:31;1.15;;;0.60;;
58091;SDS011;43896;48.178;11.578;2024-02-21T11:09:57;2.33;;;0.80;;
58091;SDS011;43896;48.178;11.578;2024-02-21T11:12:24;2.55;;;0.82;;
58091;SDS011;43896;48.178;11.578;2024-02-21T11:14:51;0.88;;;0.40;;
58091;SDS011;43896;48.178;11.578;2024-02-21T11:17:17;1.45;;;0.43;;
58091;SDS011;43896;48.178;11.578;2024-02-21T11:19:43;1.73;;;0.50;;
58091;SDS011;43896;48.178;11.578;2024-02-21T11:22:17;1.30;;;0.50;;
58091;SDS011;43896;48.178;11.578;2024-02-21T11:24:44;2.63;;;0.70;;
58091;SDS011;43896;48.178;11.578;2024-02-21T11:27:14;1.08;;;0.40;;
58091;SDS011;43896;48.178;11.578;2024-02-21T11:29:44;2.03;;;0.50;;
58091;SDS011;43896;48.178;11.578;2024-02-21T11:32:14;1.40;;;0.50;;
58091;SDS011;43896;48.178;11.578;2024-02-21T11:34:41;2.85;;;0.40;;
58091;SDS011;43896;48.178;11.578;2024-02-21T11:37:15;1.05;;;0.50;;
58091;SDS011;43896;48.178;11.578;2024-02-21T11:39:41;1.10;;;0.40;;
58091;SDS011;43896;48.178;11.578;2024-02-21T11:42:07;4.50;;;0.70;;
58091;SDS011;43896;48.178;11.578;2024-02-21T11:44:34;1.90;;;0.50;;
58091;SDS011;43896;48.178;11.578;2024-02-21T11:47:00;2.53;;;0.40;;
58091;SDS011;43896;48.178;11.578;2024-02-21T11:49:29;1.02;;;0.30;;
58091;SDS011;43896;48.178;11.578;2024-02-21T11:52:01;0.90;;;0.30;;
58091;SDS011;43896;48.178;11.578;2024-02-21T11:54:31;1.30;;;0.40;;
58091;SDS011;43896;48.178;11.578;2024-02-21T11:56:56;1.45;;;0.40;;
58091;SDS011;43896;48.178;11.578;2024-02-21T11:59:22;2.10;;;0.40;;
58091;SDS011;43896;48.178;11.578;2024-02-21T12:01:50;0.90;;;0.50;;
58091;SDS011;43896;48.178;11.578;2024-02-21T12:06:47;1.20;;;0.35;;
58091;SDS011;43896;48.178;11.578;2024-02-21T12:09:15;0.77;;;0.30;;
58091;SDS011;43896;48.178;11.578;2024-02-21T12:11:41;1.27;;;0.38;;
58091;SDS011;43896;48.178;11.578;2024-02-21T12:14:08;1.33;;;0.40;;
58091;SDS011;43896;48.178;11.578;2024-02-21T12:16:34;1.70;;;0.28;;
58091;SDS011;43896;48.178;11.578;2024-02-21T12:19:01;3.28;;;0.43;;
58091;SDS011;43896;48.178;11.578;2024-02-21T12:21:32;2.67;;;0.30;;
58091;SDS011;43896;48.178;11.578;2024-02-21T12:24:23;0.77;;;0.30;;
58091;SDS011;43896;48.178;11.578;2024-02-21T12:26:48;1.45;;;0.40;;
58091;SDS011;43896;48.178;11.578;2024-02-21T12:29:14;2.00;;;0.30;;
58091;SDS011;43896;48.178;11.578;2024-02-21T12:31:39;1.08;;;0.40;;
58091;SDS011;43896;48.178;11.578;2024-02-21T12:34:05;1.48;;;0.40;;
58091;SDS011;43896;48.178;11.578;2024-02-21T12:36:31;1.33;;;0.40;;
58091;SDS011;43896;48.178;11.578;2024-02-21T12:38:57;1.67;;;0.50;;
58091;SDS011;43896;48.178;11.578;2024-02-21T12:41:23;2.22;;;0.40;;
58091;SDS011;43896;48.178;11.578;2024-02-21T12:43:50;1.13;;;0.30;;
58091;SDS011;43896;48.178;11.578;2024-02-21T12:46:16;1.88;;;0.30;;
58091;SDS011;43896;48.178;11.578;2024-02-21T12:48:41;1.40;;;0.30;;
58091;SDS011;43896;48.178;11.578;2024-02-21T12:51:07;1.25;;;0.25;;
58091;SDS011;43896;48.178;11.578;2024-02-21T12:53:32;0.50;;;0.30;;
58091;SDS011;43896;48.178;11.578;2024-02-21T12:55:57;0.88;;;0.28;;
58091;SDS011;43896;48.178;11.578;2024-02-21T12:58:23;2.13;;;0.30;;
58091;SDS011;43896;48.178;11.578;2024-02-21T13:00:48;0.30;;;0.20;;
58091;SDS011;43896;48.178;11.578;2024-02-21T13:03:14;1.73;;;0.32;;
58091;SDS011;43896;48.178;11.578;2024-02-21T13:05:39;1.30;;;0.40;;
58091;SDS011;43896;48.178;11.578;2024-02-21T13:08:08;1.38;;;0.40;;
58091;SDS011;43896;48.178;11.578;2024-02-21T13:10:34;0.88;;;0.30;;
58091;SDS011;43896;48.178;11.578;2024-02-21T13:13:02;0.90;;;0.38;;
58091;SDS011;43896;48.178;11.578;2024-02-21T13:15:28;0.80;;;0.30;;
58091;SDS011;43896;48.178;11.578;2024-02-21T13:17:57;2.78;;;0.40;;
58091;SDS011;43896;48.178;11.578;2024-02-21T13:20:23;1.60;;;0.35;;
58091;SDS011;43896;48.178;11.578;2024-02-21T13:22:50;2.42;;;0.50;;
58091;SDS011;43896;48.178;11.578;2024-02-21T13:25:15;0.30;;;0.20;;
58091;SDS011;43896;48.178;11.578;2024-02-21T13:27:43;1.00;;;0.32;;
58091;SDS011;43896;48.178;11.578;2024-02-21T13:30:09;1.50;;;0.30;;
58091;SDS011;43896;48.178;11.578;2024-02-21T13:32:35;1.20;;;0.30;;
58091;SDS011;43896;48.178;11.578;2024-02-21T13:35:01;0.82;;;0.30;;
58091;SDS011;43896;48.178;11.578;2024-02-21T13:37:26;1.45;;;0.30;;
58091;SDS011;43896;48.178;11.578;2024-02-21T13:39:52;0.60;;;0.30;;
58091;SDS011;43896;48.178;11.578;2024-02-21T13:42:18;1.33;;;0.30;;
58091;SDS011;43896;48.178;11.578;2024-02-21T13:44:44;1.10;;;0.32;;
58091;SDS011;43896;48.178;11.578;2024-02-21T13:47:09;0.93;;;0.30;;
58091;SDS011;43896;48.178;11.578;2024-02-21T13:49:36;3.42;;;0.30;;
58091;SDS011;43896;48.178;11.578;2024-02-21T13:52:01;3.60;;;0.50;;
58091;SDS011;43896;48.178;11.578;2024-02-21T13:54:27;2.28;;;0.40;;
58091;SDS011;43896;48.178;11.578;2024-02-21T13:56:52;1.95;;;0.30;;
58091;SDS011;43896;48.178;11.578;2024-02-21T13:59:18;0.93;;;0.22;;
58091;SDS011;43896;48.178;11.578;2024-02-21T14:01:43;0.60;;;0.22;;
58091;SDS011;43896;48.178;11.578;2024-02-21T14:04:09;1.30;;;0.30;;
58091;SDS011;43896;48.178;11.578;2024-02-21T14:06:34;0.43;;;0.22;;
58091;SDS011;43896;48.178;11.578;2024-02-21T14:09:00;1.13;;;0.20;;
58091;SDS011;43896;48.178;11.578;2024-02-21T14:11:26;1.10;;;0.40;;
58091;SDS011;43896;48.178;11.578;2024-02-21T14:13:52;3.72;;;0.40;;
58091;SDS011;43896;48.178;11.578;2024-02-21T14:16:17;0.52;;;0.22;;
58091;SDS011;43896;48.178;11.578;2024-02-21T14:18:43;3.72;;;0.40;;
58091;SDS011;43896;48.178;11.578;2024-02-21T14:21:08;1.13;;;0.40;;
58091;SDS011;43896;48.178;11.578;2024-02-21T14:23:38;2.80;;;0.60;;
58091;SDS011;43896;48.178;11.578;2024-02-21T14:26:04;1.50;;;0.30;;
58091;SDS011;43896;48.178;11.578;2024-02-21T14:28:30;0.90;;;0.40;;
58091;SDS011;43896;48.178;11.578;2024-02-21T14:30:55;1.50;;;0.40;;
58091;SDS011;43896;48.178;11.578;2024-02-21T14:33:23;1.35;;;0.50;;
58091;SDS011;43896;48.178;11.578;2024-02-21T14:35:49;2.55;;;0.50;;
58091;SDS011;43896;48.178;11.578;2024-02-21T14:38:14;1.48;;;0.40;;
58091;SDS011;43896;48.178;11.578;2024-02-21T14:40:40;1.00;;;0.43;;